Main page
METAR-TAF:

METAR-TAF

Airports :

Seville, Spain

Seville Airport

latitude: 37-25N, longitude: 005-54W, elevation: 34 m

Current weather observation

The report was made 36 minutes ago, at 15:00 UTC
Wind 2 kt from variable directions
Temperature 20°C
Humidity 53%
Pressure 1025 hPa
Visibility 10 km or more
no clouds below 1500 m and no cumulonimbus

METAR: LEZL 231500Z VRB02KT CAVOK 20/10 Q1025 NOSIG

Time: 16:36 (15:36 UTC)

Forecast

The report was made 1 hour and 36 minutes ago, at 14:00 UTC
Forecast valid from 23 at 15 UTC to 24 at 15 UTC
Wind 3 kt from the Northeast
Visibility 10 km or more
no clouds below 1500 m and no cumulonimbus
Temporary
from 24 at 03 UTC to 24 at 09 UTC
Visibility: 3000 m
Broken clouds at a height of 1200 ft
mist
Probability 30% :
Temporary
from 24 at 04 UTC to 24 at 09 UTC
Visibility: 0500 m
at a height of 100 ft
fog

TAF: LEZL 231400Z 2315/2415 04003KT CAVOK TX20/2315Z TN06/2408Z TEMPO 2403/2409 3000 BR BKN012 PROB30 TEMPO 2404/2409 0500 FG VV001

Weather observations and forecasts of more than 4000 airports (METAR and TAF reports).

The available stations are represented by yellow and red dots on the map.

Hover mouse over dot to see the name of the station.

Then click to see weather observations and forecasts.

To change the map : click on the green buttons with a black cross to zoom in, on the green button with a dash to zoom out, or on the green arrows for adjacent maps.


METAR-TAF: